Buckcreek, Iowa
Current Conditions -  °F | °C
As of 7:15 AM on Monday 22 Dec 2014 (Local Time) from KOLZ Reporting Station
Haze Haze  
Wind Chill: 24°   Ceiling: 2000
Heat Index: 34°   Visibility: 4mi
Dew Point: 34°   Wind: 15mph
Humidity: 100%   Direction: 140°SE
Pressure: 29.73"   Gusts: NA
Location:  42.8281°N, 92.1565°W
Report Text: KOLZ 221315Z AUTO 14013KT 4SM BR OVC020 01/01 A2973 RMK AO2
Loading
Personal Weather Stations






























Interactive Weather Map New forecast layout! Learn more

10-Day Weather Forecast

Advertisements
Track Severe Weather on mobile